PWSweather.com
Personal Weather Stations
Station Observations
PICKERING
North Yorkshire, PickeringGB

North YorkshirePickeringGB

Lat: 54.2494, Lon: -0.7725

Elevation: 192

Station Type: Oregon Scientific WMR100

http://www.yorkshirewalker.co.uk/weather/

High Low Average
Temperature 56.7°F13.7°C 43.0°F6.1°C 49.2°F9.6°C
Dew Point 46.4°F8.0°C 37.4°F3.0°C 42.4°F5.8°C
Winds 7.6 mph 12.2 kmh Calm Calm 4.0 mph SSE6.4 kmh SSE
Wind Gusts 14.3 mph23.0 kmh -- 7.0 mph11.3 kmh
Humidity 84% 67% 76%
Pressure 29.24 in990.2 mb 28.85 in977.0 mb -
Precipitation 0.00 in0.0 mm - -
Hour Temp Dew Point Humidity Winds Wind Gusts Pressure Precip Precip Rate Daily Precip Total
12:00 AM 50.9°F10.5°C 46.4°F8.0°C 80% 4.7 mph SSE7.6 kmh SSE 8.5 mph13.7 kmh 29.24 in990.2 mb 0.00 in0.0 mm 0.00 in0.0 mm 0.00 in0.0 mm
12:05 AM 50.7°F10.4°C 44.6°F7.0°C 80% 3.3 mph SSE5.3 kmh SSE 8.5 mph13.7 kmh 29.24 in990.2 mb 0.00 in0.0 mm 0.00 in0.0 mm 0.00 in0.0 mm
12:10 AM 50.5°F10.3°C 44.6°F7.0°C 80% 2.1 mph ESE3.4 kmh ESE 4.3 mph6.9 kmh 29.24 in990.2 mb 0.00 in0.0 mm 0.00 in0.0 mm 0.00 in0.0 mm
12:15 AM 50.5°F10.3°C 44.6°F7.0°C 80% 2.1 mph ESE3.4 kmh ESE 3.8 mph6.1 kmh 29.24 in990.2 mb 0.00 in0.0 mm 0.00 in0.0 mm 0.00 in0.0 mm
12:20 AM 50.4°F10.2°C 44.6°F7.0°C 80% 2.6 mph SSE4.2 kmh SSE 4.9 mph7.9 kmh 29.24 in990.2 mb 0.00 in0.0 mm 0.00 in0.0 mm 0.00 in0.0 mm
12:25 AM 50.4°F10.2°C 44.6°F7.0°C 80% 2.3 mph S3.7 kmh S 4.9 mph7.9 kmh 29.24 in990.2 mb 0.00 in0.0 mm 0.00 in0.0 mm 0.00 in0.0 mm
12:30 AM 50.4°F10.2°C 44.6°F7.0°C 80% 2.3 mph SE3.7 kmh SE 4.9 mph7.9 kmh 29.24 in990.2 mb 0.00 in0.0 mm 0.00 in0.0 mm 0.00 in0.0 mm
12:35 AM 50.4°F10.2°C 44.6°F7.0°C 80% 2.4 mph SE3.9 kmh SE 4.3 mph6.9 kmh 29.24 in990.2 mb 0.00 in0.0 mm 0.00 in0.0 mm 0.00 in0.0 mm
12:40 AM 50.4°F10.2°C 44.6°F7.0°C 80% 1.8 mph SE2.9 kmh SE 4.0 mph6.4 kmh 29.24 in990.2 mb 0.00 in0.0 mm 0.00 in0.0 mm 0.00 in0.0 mm
12:45 AM 50.4°F10.2°C 44.6°F7.0°C 80% 2.2 mph SE3.5 kmh SE 6.7 mph10.8 kmh 29.24 in990.2 mb 0.00 in0.0 mm 0.00 in0.0 mm 0.00 in0.0 mm
12:50 AM 50.4°F10.2°C 44.6°F7.0°C 79% 2.7 mph SE4.3 kmh SE 6.7 mph10.8 kmh 29.24 in990.2 mb 0.00 in0.0 mm 0.00 in0.0 mm 0.00 in0.0 mm
12:55 AM 50.4°F10.2°C 44.6°F7.0°C 79% 2.7 mph SE4.3 kmh SE 6.3 mph10.1 kmh 29.24 in990.2 mb 0.00 in0.0 mm 0.00 in0.0 mm 0.00 in0.0 mm
01:00 AM 50.4°F10.2°C 44.6°F7.0°C 79% 2.2 mph SE3.5 kmh SE 4.5 mph7.2 kmh 29.24 in990.2 mb 0.00 in0.0 mm 0.00 in0.0 mm 0.00 in0.0 mm
01:05 AM 50.4°F10.2°C 44.6°F7.0°C 79% 1.4 mph S2.3 kmh S 3.6 mph5.8 kmh 29.24 in990.2 mb 0.00 in0.0 mm 0.00 in0.0 mm 0.00 in0.0 mm
01:10 AM 50.4°F10.2°C 44.6°F7.0°C 79% 1.6 mph ESE2.6 kmh ESE 3.8 mph6.1 kmh 29.21 in989.2 mb 0.00 in0.0 mm 0.00 in0.0 mm 0.00 in0.0 mm
01:15 AM 50.4°F10.2°C 44.6°F7.0°C 79% 2.3 mph SE3.7 kmh SE 9.6 mph15.4 kmh 29.21 in989.2 mb 0.00 in0.0 mm 0.00 in0.0 mm 0.00 in0.0 mm
01:20 AM 50.2°F10.1°C 44.6°F7.0°C 79% 2.5 mph S4.0 kmh S 9.6 mph15.4 kmh 29.21 in989.2 mb 0.00 in0.0 mm 0.00 in0.0 mm 0.00 in0.0 mm
01:25 AM 50.0°F10.0°C 44.6°F7.0°C 79% 2.7 mph S4.3 kmh S 4.3 mph6.9 kmh 29.21 in989.2 mb 0.00 in0.0 mm 0.00 in0.0 mm 0.00 in0.0 mm
01:30 AM 49.6°F9.8°C 42.8°F6.0°C 79% 2.5 mph SE4.0 kmh SE 4.3 mph6.9 kmh 29.21 in989.2 mb 0.00 in0.0 mm 0.00 in0.0 mm 0.00 in0.0 mm
01:35 AM 49.5°F9.7°C 42.8°F6.0°C 79% 2.5 mph SSE4.0 kmh SSE 5.4 mph8.7 kmh 29.21 in989.2 mb 0.00 in0.0 mm 0.00 in0.0 mm 0.00 in0.0 mm
01:40 AM 49.3°F9.6°C 42.8°F6.0°C 79% 2.6 mph S4.2 kmh S 5.8 mph9.3 kmh 29.21 in989.2 mb 0.00 in0.0 mm 0.00 in0.0 mm 0.00 in0.0 mm
01:45 AM 49.3°F9.6°C 42.8°F6.0°C 79% 2.5 mph S4.0 kmh S 5.8 mph9.3 kmh 29.21 in989.2 mb 0.00 in0.0 mm 0.00 in0.0 mm 0.00 in0.0 mm
01:50 AM 49.3°F9.6°C 44.6°F7.0°C 80% 2.6 mph SSE4.2 kmh SSE 4.3 mph6.9 kmh 29.21 in989.2 mb 0.00 in0.0 mm 0.00 in0.0 mm 0.00 in0.0 mm
01:55 AM 49.5°F9.7°C 44.6°F7.0°C 80% 2.3 mph SE3.7 kmh SE 3.8 mph6.1 kmh 29.21 in989.2 mb 0.00 in0.0 mm 0.00 in0.0 mm 0.00 in0.0 mm
02:00 AM 49.5°F9.7°C 44.6°F7.0°C 80% 2.3 mph SE3.7 kmh SE 4.3 mph6.9 kmh 29.21 in989.2 mb 0.00 in0.0 mm 0.00 in0.0 mm 0.00 in0.0 mm
02:05 AM 49.3°F9.6°C 44.6°F7.0°C 80% 2.6 mph SSE4.2 kmh SSE 4.9 mph7.9 kmh 29.21 in989.2 mb 0.00 in0.0 mm 0.00 in0.0 mm 0.00 in0.0 mm
02:10 AM 49.1°F9.5°C 44.6°F7.0°C 80% 3.2 mph S5.1 kmh S 5.4 mph8.7 kmh 29.18 in988.1 mb 0.00 in0.0 mm 0.00 in0.0 mm 0.00 in0.0 mm
02:15 AM 48.9°F9.4°C 42.8°F6.0°C 80% 4.3 mph S6.9 kmh S 6.5 mph10.5 kmh 29.18 in988.1 mb 0.00 in0.0 mm 0.00 in0.0 mm 0.00 in0.0 mm
02:20 AM 48.7°F9.3°C 42.8°F6.0°C 80% 4.8 mph SSE7.7 kmh SSE 6.5 mph10.5 kmh 29.18 in988.1 mb 0.00 in0.0 mm 0.00 in0.0 mm 0.00 in0.0 mm
02:25 AM 48.7°F9.3°C 42.8°F6.0°C 80% 4.1 mph SSE6.6 kmh SSE 6.0 mph9.7 kmh 29.21 in989.2 mb 0.00 in0.0 mm 0.00 in0.0 mm 0.00 in0.0 mm
02:30 AM 48.9°F9.4°C 42.8°F6.0°C 80% 3.5 mph S5.6 kmh S 5.8 mph9.3 kmh 29.21 in989.2 mb 0.00 in0.0 mm 0.00 in0.0 mm 0.00 in0.0 mm
02:35 AM 48.9°F9.4°C 42.8°F6.0°C 80% 4.4 mph S7.1 kmh S 10.3 mph16.6 kmh 29.21 in989.2 mb 0.00 in0.0 mm 0.00 in0.0 mm 0.00 in0.0 mm
02:40 AM 48.7°F9.3°C 42.8°F6.0°C 80% 4.8 mph S7.7 kmh S 10.3 mph16.6 kmh 29.18 in988.1 mb 0.00 in0.0 mm 0.00 in0.0 mm 0.00 in0.0 mm
02:45 AM 48.6°F9.2°C 42.8°F6.0°C 80% 4.0 mph S6.4 kmh S 5.8 mph9.3 kmh 29.18 in988.1 mb 0.00 in0.0 mm 0.00 in0.0 mm 0.00 in0.0 mm
02:50 AM 48.4°F9.1°C 42.8°F6.0°C 80% 4.8 mph S7.7 kmh S 8.5 mph13.7 kmh 29.18 in988.1 mb 0.00 in0.0 mm 0.00 in0.0 mm 0.00 in0.0 mm
02:55 AM 48.4°F9.1°C 42.8°F6.0°C 80% 5.3 mph SSW8.5 kmh SSW 8.5 mph13.7 kmh 29.18 in988.1 mb 0.00 in0.0 mm 0.00 in0.0 mm 0.00 in0.0 mm
03:00 AM 48.2°F9.0°C 42.8°F6.0°C 80% 5.9 mph SSW9.5 kmh SSW 11.0 mph17.7 kmh 29.18 in988.1 mb 0.00 in0.0 mm 0.00 in0.0 mm 0.00 in0.0 mm
03:05 AM 48.2°F9.0°C 42.8°F6.0°C 80% 6.6 mph S10.6 kmh S 11.0 mph17.7 kmh 29.18 in988.1 mb 0.00 in0.0 mm 0.00 in0.0 mm 0.00 in0.0 mm
03:10 AM 48.2°F9.0°C 42.8°F6.0°C 80% 6.7 mph SSE10.8 kmh SSE 12.8 mph20.6 kmh 29.18 in988.1 mb 0.00 in0.0 mm 0.00 in0.0 mm 0.00 in0.0 mm
03:15 AM 48.2°F9.0°C 42.8°F6.0°C 80% 6.0 mph SSE9.7 kmh SSE 12.8 mph20.6 kmh 29.18 in988.1 mb 0.00 in0.0 mm 0.00 in0.0 mm 0.00 in0.0 mm
03:20 AM 48.0°F8.9°C 42.8°F6.0°C 80% 5.0 mph S8.0 kmh S 9.6 mph15.4 kmh 29.18 in988.1 mb 0.00 in0.0 mm 0.00 in0.0 mm 0.00 in0.0 mm
03:25 AM 48.2°F9.0°C 42.8°F6.0°C 80% 5.0 mph S8.0 kmh S 8.7 mph14.0 kmh 29.18 in988.1 mb 0.00 in0.0 mm 0.00 in0.0 mm 0.00 in0.0 mm
03:30 AM 48.0°F8.9°C 42.8°F6.0°C 80% 5.5 mph S8.9 kmh S 8.1 mph13.0 kmh 29.18 in988.1 mb 0.00 in0.0 mm 0.00 in0.0 mm 0.00 in0.0 mm
03:35 AM 47.8°F8.8°C 42.8°F6.0°C 80% 6.1 mph S9.8 kmh S 11.0 mph17.7 kmh 29.18 in988.1 mb 0.00 in0.0 mm 0.00 in0.0 mm 0.00 in0.0 mm
03:40 AM 47.8°F8.8°C 42.8°F6.0°C 80% 4.7 mph SSE7.6 kmh SSE 11.0 mph17.7 kmh 29.18 in988.1 mb 0.00 in0.0 mm 0.00 in0.0 mm 0.00 in0.0 mm
03:45 AM 47.7°F8.7°C 42.8°F6.0°C 80% 3.8 mph S6.1 kmh S 7.6 mph12.2 kmh 29.18 in988.1 mb 0.00 in0.0 mm 0.00 in0.0 mm 0.00 in0.0 mm
03:50 AM 47.7°F8.7°C 42.8°F6.0°C 81% 4.3 mph S6.9 kmh S 7.6 mph12.2 kmh 29.18 in988.1 mb 0.00 in0.0 mm 0.00 in0.0 mm 0.00 in0.0 mm
03:55 AM 47.8°F8.8°C 42.8°F6.0°C 81% 3.5 mph S5.6 kmh S 6.0 mph9.7 kmh 29.15 in987.1 mb 0.00 in0.0 mm 0.00 in0.0 mm 0.00 in0.0 mm
04:00 AM 48.0°F8.9°C 42.8°F6.0°C 80% 2.5 mph S4.0 kmh S 6.0 mph9.7 kmh 29.15 in987.1 mb 0.00 in0.0 mm 0.00 in0.0 mm 0.00 in0.0 mm
04:05 AM 48.0°F8.9°C 42.8°F6.0°C 80% 1.8 mph S2.9 kmh S 3.6 mph5.8 kmh 29.15 in987.1 mb 0.00 in0.0 mm 0.00 in0.0 mm 0.00 in0.0 mm
04:10 AM 48.0°F8.9°C 42.8°F6.0°C 80% 2.4 mph S3.9 kmh S 3.4 mph5.5 kmh 29.15 in987.1 mb 0.00 in0.0 mm 0.00 in0.0 mm 0.00 in0.0 mm
04:15 AM 48.0°F8.9°C 42.8°F6.0°C 80% 2.8 mph SE4.5 kmh SE 4.3 mph6.9 kmh 29.15 in987.1 mb 0.00 in0.0 mm 0.00 in0.0 mm 0.00 in0.0 mm
04:20 AM 48.0°F8.9°C 42.8°F6.0°C 80% 2.6 mph SSE4.2 kmh SSE 4.7 mph7.6 kmh 29.15 in987.1 mb 0.00 in0.0 mm 0.00 in0.0 mm 0.00 in0.0 mm
04:25 AM 47.8°F8.8°C 42.8°F6.0°C 80% 2.2 mph S3.5 kmh S 4.7 mph7.6 kmh 29.15 in987.1 mb 0.00 in0.0 mm 0.00 in0.0 mm 0.00 in0.0 mm
04:30 AM 47.7°F8.7°C 42.8°F6.0°C 80% 1.7 mph SSE2.7 kmh SSE 3.8 mph6.1 kmh 29.15 in987.1 mb 0.00 in0.0 mm 0.00 in0.0 mm 0.00 in0.0 mm
04:35 AM 47.7°F8.7°C 42.8°F6.0°C 80% 1.1 mph SSE1.8 kmh SSE 2.5 mph4.0 kmh 29.15 in987.1 mb 0.00 in0.0 mm 0.00 in0.0 mm 0.00 in0.0 mm
04:40 AM 47.5°F8.6°C 42.8°F6.0°C 80% 0.9 mph SE1.4 kmh SE 2.5 mph4.0 kmh 29.15 in987.1 mb 0.00 in0.0 mm 0.00 in0.0 mm 0.00 in0.0 mm
04:45 AM 47.3°F8.5°C 42.8°F6.0°C 80% 1.0 mph SE1.6 kmh SE 1.6 mph2.6 kmh 29.15 in987.1 mb 0.00 in0.0 mm 0.00 in0.0 mm 0.00 in0.0 mm
04:50 AM 47.1°F8.4°C 42.8°F6.0°C 80% 1.2 mph SSE1.9 kmh SSE 5.8 mph9.3 kmh 29.15 in987.1 mb 0.00 in0.0 mm 0.00 in0.0 mm 0.00 in0.0 mm
04:55 AM 46.9°F8.3°C 42.8°F6.0°C 80% 1.1 mph SE1.8 kmh SE 5.8 mph9.3 kmh 29.15 in987.1 mb 0.00 in0.0 mm 0.00 in0.0 mm 0.00 in0.0 mm
05:00 AM 46.8°F8.2°C 41.0°F5.0°C 80% 1.0 mph ESE1.6 kmh ESE 3.1 mph5.0 kmh 29.15 in987.1 mb 0.00 in0.0 mm 0.00 in0.0 mm 0.00 in0.0 mm
05:05 AM 46.8°F8.2°C 41.0°F5.0°C 80% 1.5 mph ENE2.4 kmh ENE 3.8 mph6.1 kmh 29.15 in987.1 mb 0.00 in0.0 mm 0.00 in0.0 mm 0.00 in0.0 mm
05:10 AM 46.9°F8.3°C 42.8°F6.0°C 80% 1.2 mph ENE1.9 kmh ENE 3.8 mph6.1 kmh 29.12 in986.1 mb 0.00 in0.0 mm 0.00 in0.0 mm 0.00 in0.0 mm
05:15 AM 46.9°F8.3°C 42.8°F6.0°C 81% 1.0 mph ESE1.6 kmh ESE 2.0 mph3.2 kmh 29.12 in986.1 mb 0.00 in0.0 mm 0.00 in0.0 mm 0.00 in0.0 mm
05:20 AM 47.1°F8.4°C 42.8°F6.0°C 81% 1.8 mph E2.9 kmh E 3.1 mph5.0 kmh 29.12 in986.1 mb 0.00 in0.0 mm 0.00 in0.0 mm 0.00 in0.0 mm
05:25 AM 46.9°F8.3°C 42.8°F6.0°C 81% 2.0 mph E3.2 kmh E 3.1 mph5.0 kmh 29.12 in986.1 mb 0.00 in0.0 mm 0.00 in0.0 mm 0.00 in0.0 mm
05:30 AM 46.9°F8.3°C 42.8°F6.0°C 81% 2.1 mph ESE3.4 kmh ESE 4.3 mph6.9 kmh 29.12 in986.1 mb 0.00 in0.0 mm 0.00 in0.0 mm 0.00 in0.0 mm
05:35 AM 46.9°F8.3°C 42.8°F6.0°C 81% 1.7 mph E2.7 kmh E 4.3 mph6.9 kmh 29.12 in986.1 mb 0.00 in0.0 mm 0.00 in0.0 mm 0.00 in0.0 mm
05:40 AM 46.9°F8.3°C 42.8°F6.0°C 81% 1.5 mph ESE2.4 kmh ESE 2.7 mph4.3 kmh 29.12 in986.1 mb 0.00 in0.0 mm 0.00 in0.0 mm 0.00 in0.0 mm
05:45 AM 46.9°F8.3°C 42.8°F6.0°C 81% 2.2 mph SE3.5 kmh SE 3.6 mph5.8 kmh 29.12 in986.1 mb 0.00 in0.0 mm 0.00 in0.0 mm 0.00 in0.0 mm
05:50 AM 47.1°F8.4°C 42.8°F6.0°C 81% 3.2 mph SSE5.1 kmh SSE 4.9 mph7.9 kmh 29.12 in986.1 mb 0.00 in0.0 mm 0.00 in0.0 mm 0.00 in0.0 mm
05:55 AM 47.1°F8.4°C 42.8°F6.0°C 81% 3.1 mph SE5.0 kmh SE 4.9 mph7.9 kmh 29.12 in986.1 mb 0.00 in0.0 mm 0.00 in0.0 mm 0.00 in0.0 mm
06:00 AM 47.1°F8.4°C 42.8°F6.0°C 81% 2.5 mph SE4.0 kmh SE 9.8 mph15.8 kmh 29.12 in986.1 mb 0.00 in0.0 mm 0.00 in0.0 mm 0.00 in0.0 mm
06:05 AM 47.1°F8.4°C 42.8°F6.0°C 80% 2.5 mph SE4.0 kmh SE 9.8 mph15.8 kmh 29.12 in986.1 mb 0.00 in0.0 mm 0.00 in0.0 mm 0.00 in0.0 mm
06:10 AM 47.1°F8.4°C 42.8°F6.0°C 80% 3.4 mph S5.5 kmh S 5.4 mph8.7 kmh 29.12 in986.1 mb 0.00 in0.0 mm 0.00 in0.0 mm 0.00 in0.0 mm
06:15 AM 47.1°F8.4°C 42.8°F6.0°C 80% 3.7 mph S6.0 kmh S 4.9 mph7.9 kmh 29.12 in986.1 mb 0.00 in0.0 mm 0.00 in0.0 mm 0.00 in0.0 mm
06:20 AM 47.1°F8.4°C 42.8°F6.0°C 80% 2.7 mph S4.3 kmh S 4.3 mph6.9 kmh 29.12 in986.1 mb 0.00 in0.0 mm 0.00 in0.0 mm 0.00 in0.0 mm
06:25 AM 47.1°F8.4°C 42.8°F6.0°C 80% 2.8 mph S4.5 kmh S 5.4 mph8.7 kmh 29.12 in986.1 mb 0.00 in0.0 mm 0.00 in0.0 mm 0.00 in0.0 mm
06:30 AM 47.1°F8.4°C 42.8°F6.0°C 80% 3.3 mph SSE5.3 kmh SSE 5.4 mph8.7 kmh 29.12 in986.1 mb 0.00 in0.0 mm 0.00 in0.0 mm 0.00 in0.0 mm
06:35 AM 47.1°F8.4°C 42.8°F6.0°C 81% 3.4 mph SE5.5 kmh SE 7.2 mph11.6 kmh 29.12 in986.1 mb 0.00 in0.0 mm 0.00 in0.0 mm 0.00 in0.0 mm
06:40 AM 47.1°F8.4°C 42.8°F6.0°C 81% 2.5 mph SE4.0 kmh SE 7.2 mph11.6 kmh 29.12 in986.1 mb 0.00 in0.0 mm 0.00 in0.0 mm 0.00 in0.0 mm
06:45 AM 47.1°F8.4°C 42.8°F6.0°C 81% 2.6 mph S4.2 kmh S 5.4 mph8.7 kmh 29.12 in986.1 mb 0.00 in0.0 mm 0.00 in0.0 mm 0.00 in0.0 mm
06:50 AM 47.1°F8.4°C 42.8°F6.0°C 81% 3.1 mph S5.0 kmh S 5.4 mph8.7 kmh 29.12 in986.1 mb 0.00 in0.0 mm 0.00 in0.0 mm 0.00 in0.0 mm
06:55 AM 47.1°F8.4°C 42.8°F6.0°C 81% 3.0 mph SE4.8 kmh SE 4.5 mph7.2 kmh 29.12 in986.1 mb 0.00 in0.0 mm 0.00 in0.0 mm 0.00 in0.0 mm
07:00 AM 46.9°F8.3°C 42.8°F6.0°C 81% 3.8 mph SSE6.1 kmh SSE 7.4 mph11.9 kmh 29.12 in986.1 mb 0.00 in0.0 mm 0.00 in0.0 mm 0.00 in0.0 mm
07:05 AM 46.9°F8.3°C 42.8°F6.0°C 81% 4.5 mph S7.2 kmh S 9.8 mph15.8 kmh 29.12 in986.1 mb 0.00 in0.0 mm 0.00 in0.0 mm 0.00 in0.0 mm
07:10 AM 46.8°F8.2°C 41.0°F5.0°C 81% 3.8 mph S6.1 kmh S 9.8 mph15.8 kmh 29.09 in985.1 mb 0.00 in0.0 mm 0.00 in0.0 mm 0.00 in0.0 mm
07:15 AM 46.4°F8.0°C 41.0°F5.0°C 81% 2.6 mph S4.2 kmh S 5.6 mph9.0 kmh 29.09 in985.1 mb 0.00 in0.0 mm 0.00 in0.0 mm 0.00 in0.0 mm
07:20 AM 46.2°F7.9°C 41.0°F5.0°C 81% 1.2 mph S1.9 kmh S 2.5 mph4.0 kmh 29.09 in985.1 mb 0.00 in0.0 mm 0.00 in0.0 mm 0.00 in0.0 mm
07:25 AM 45.9°F7.7°C 41.0°F5.0°C 82% 0.9 mph S1.4 kmh S 2.0 mph3.2 kmh 29.09 in985.1 mb 0.00 in0.0 mm 0.00 in0.0 mm 0.00 in0.0 mm
07:30 AM 45.3°F7.4°C 41.0°F5.0°C 82% 0.4 mph S0.6 kmh S 2.0 mph3.2 kmh 29.09 in985.1 mb 0.00 in0.0 mm 0.00 in0.0 mm 0.00 in0.0 mm
07:35 AM 45.0°F7.2°C 41.0°F5.0°C 82% Calm Calm -- 29.09 in985.1 mb 0.00 in0.0 mm 0.00 in0.0 mm 0.00 in0.0 mm
07:40 AM 44.6°F7.0°C 39.2°F4.0°C 82% Calm Calm -- 29.06 in984.1 mb 0.00 in0.0 mm 0.00 in0.0 mm 0.00 in0.0 mm
07:45 AM 44.6°F7.0°C 39.2°F4.0°C 82% Calm Calm -- 29.06 in984.1 mb 0.00 in0.0 mm 0.00 in0.0 mm 0.00 in0.0 mm
07:50 AM 44.1°F6.7°C 39.2°F4.0°C 82% 0.1 mph SSE0.2 kmh SSE 1.1 mph1.8 kmh 29.06 in984.1 mb 0.00 in0.0 mm 0.00 in0.0 mm 0.00 in0.0 mm
07:55 AM 43.9°F6.6°C 39.2°F4.0°C 82% 0.1 mph SSE0.2 kmh SSE 1.1 mph1.8 kmh 29.09 in985.1 mb 0.00 in0.0 mm 0.00 in0.0 mm 0.00 in0.0 mm
08:00 AM 43.7°F6.5°C 39.2°F4.0°C 82% Calm Calm -- 29.09 in985.1 mb 0.00 in0.0 mm 0.00 in0.0 mm 0.00 in0.0 mm
08:05 AM 43.5°F6.4°C 39.2°F4.0°C 82% Calm Calm -- 29.09 in985.1 mb 0.00 in0.0 mm 0.00 in0.0 mm 0.00 in0.0 mm
08:10 AM 43.3°F6.3°C 39.2°F4.0°C 82% 0.2 mph SE0.3 kmh SE 0.9 mph1.4 kmh 29.06 in984.1 mb 0.00 in0.0 mm 0.00 in0.0 mm 0.00 in0.0 mm
08:15 AM 43.2°F6.2°C 39.2°F4.0°C 82% 0.4 mph SE0.6 kmh SE 1.3 mph2.1 kmh 29.06 in984.1 mb 0.00 in0.0 mm 0.00 in0.0 mm 0.00 in0.0 mm
08:20 AM 43.2°F6.2°C 39.2°F4.0°C 82% 0.4 mph ESE0.6 kmh ESE 1.3 mph2.1 kmh 29.06 in984.1 mb 0.00 in0.0 mm 0.00 in0.0 mm 0.00 in0.0 mm
08:25 AM 43.2°F6.2°C 39.2°F4.0°C 82% 0.2 mph ENE0.3 kmh ENE 1.3 mph2.1 kmh 29.06 in984.1 mb 0.00 in0.0 mm 0.00 in0.0 mm 0.00 in0.0 mm
08:30 AM 43.5°F6.4°C 39.2°F4.0°C 83% 0.4 mph ESE0.6 kmh ESE 1.3 mph2.1 kmh 29.06 in984.1 mb 0.00 in0.0 mm 0.00 in0.0 mm 0.00 in0.0 mm
08:35 AM 43.7°F6.5°C 39.2°F4.0°C 83% 0.5 mph SE0.8 kmh SE 1.1 mph1.8 kmh 29.06 in984.1 mb 0.00 in0.0 mm 0.00 in0.0 mm 0.00 in0.0 mm
08:40 AM 44.1°F6.7°C 39.2°F4.0°C 84% 0.5 mph ESE0.8 kmh ESE 1.6 mph2.6 kmh 29.06 in984.1 mb 0.00 in0.0 mm 0.00 in0.0 mm 0.00 in0.0 mm
08:45 AM 44.2°F6.8°C 39.2°F4.0°C 84% 0.8 mph E1.3 kmh E 2.0 mph3.2 kmh 29.06 in984.1 mb 0.00 in0.0 mm 0.00 in0.0 mm 0.00 in0.0 mm
08:50 AM 44.6°F7.0°C 41.0°F5.0°C 84% 0.8 mph E1.3 kmh E 2.0 mph3.2 kmh 29.06 in984.1 mb 0.00 in0.0 mm 0.00 in0.0 mm 0.00 in0.0 mm
08:55 AM 45.1°F7.3°C 41.0°F5.0°C 83% 0.9 mph E1.4 kmh E 1.3 mph2.1 kmh 29.00 in982.1 mb 0.00 in0.0 mm 0.00 in0.0 mm 0.00 in0.0 mm
09:00 AM 45.3°F7.4°C 41.0°F5.0°C 83% 1.1 mph NE1.8 kmh NE 2.0 mph3.2 kmh 29.00 in982.1 mb 0.00 in0.0 mm 0.00 in0.0 mm 0.00 in0.0 mm
09:05 AM 45.5°F7.5°C 41.0°F5.0°C 83% 1.1 mph E1.8 kmh E 3.4 mph5.5 kmh 29.00 in982.1 mb 0.00 in0.0 mm 0.00 in0.0 mm 0.00 in0.0 mm
09:10 AM 45.7°F7.6°C 41.0°F5.0°C 83% 1.7 mph SE2.7 kmh SE 3.4 mph5.5 kmh 28.97 in981.0 mb 0.00 in0.0 mm 0.00 in0.0 mm 0.00 in0.0 mm
09:15 AM 45.7°F7.6°C 41.0°F5.0°C 83% 1.9 mph SE3.1 kmh SE 3.4 mph5.5 kmh 28.97 in981.0 mb 0.00 in0.0 mm 0.00 in0.0 mm 0.00 in0.0 mm
09:20 AM 45.7°F7.6°C 41.0°F5.0°C 83% 1.9 mph E3.1 kmh E 4.0 mph6.4 kmh 28.97 in981.0 mb 0.00 in0.0 mm 0.00 in0.0 mm 0.00 in0.0 mm
09:25 AM 45.7°F7.6°C 41.0°F5.0°C 83% 1.8 mph E2.9 kmh E 4.0 mph6.4 kmh 29.03 in983.1 mb 0.00 in0.0 mm 0.00 in0.0 mm 0.00 in0.0 mm
09:30 AM 45.9°F7.7°C 41.0°F5.0°C 83% 1.8 mph SE2.9 kmh SE 2.9 mph4.7 kmh 29.03 in983.1 mb 0.00 in0.0 mm 0.00 in0.0 mm 0.00 in0.0 mm
09:35 AM 46.2°F7.9°C 41.0°F5.0°C 82% 2.2 mph SE3.5 kmh SE 3.4 mph5.5 kmh 29.03 in983.1 mb 0.00 in0.0 mm 0.00 in0.0 mm 0.00 in0.0 mm
09:40 AM 46.2°F7.9°C 41.0°F5.0°C 82% 2.2 mph SE3.5 kmh SE 4.0 mph6.4 kmh 29.06 in984.1 mb 0.00 in0.0 mm 0.00 in0.0 mm 0.00 in0.0 mm
09:45 AM 46.4°F8.0°C 42.8°F6.0°C 82% 1.9 mph ESE3.1 kmh ESE 4.0 mph6.4 kmh 29.06 in984.1 mb 0.00 in0.0 mm 0.00 in0.0 mm 0.00 in0.0 mm
09:50 AM 46.8°F8.2°C 42.8°F6.0°C 82% 1.7 mph SE2.7 kmh SE 2.7 mph4.3 kmh 29.06 in984.1 mb 0.00 in0.0 mm 0.00 in0.0 mm 0.00 in0.0 mm
09:55 AM 47.1°F8.4°C 42.8°F6.0°C 82% 2.0 mph SE3.2 kmh SE 2.9 mph4.7 kmh 29.06 in984.1 mb 0.00 in0.0 mm 0.00 in0.0 mm 0.00 in0.0 mm
10:00 AM 47.5°F8.6°C 42.8°F6.0°C 81% 2.3 mph SE3.7 kmh SE 3.4 mph5.5 kmh 29.06 in984.1 mb 0.00 in0.0 mm 0.00 in0.0 mm 0.00 in0.0 mm
10:05 AM 47.8°F8.8°C 42.8°F6.0°C 81% 2.3 mph SE3.7 kmh SE 3.8 mph6.1 kmh 29.06 in984.1 mb 0.00 in0.0 mm 0.00 in0.0 mm 0.00 in0.0 mm
10:10 AM 48.4°F9.1°C 42.8°F6.0°C 80% 2.1 mph ESE3.4 kmh ESE 3.8 mph6.1 kmh 29.06 in984.1 mb 0.00 in0.0 mm 0.00 in0.0 mm 0.00 in0.0 mm
10:15 AM 48.6°F9.2°C 42.8°F6.0°C 80% 2.1 mph ESE3.4 kmh ESE 4.0 mph6.4 kmh 29.06 in984.1 mb 0.00 in0.0 mm 0.00 in0.0 mm 0.00 in0.0 mm
10:20 AM 48.6°F9.2°C 42.8°F6.0°C 80% 1.8 mph ESE2.9 kmh ESE 4.3 mph6.9 kmh 29.06 in984.1 mb 0.00 in0.0 mm 0.00 in0.0 mm 0.00 in0.0 mm
10:25 AM 48.9°F9.4°C 42.8°F6.0°C 79% 2.2 mph SE3.5 kmh SE 4.3 mph6.9 kmh 29.06 in984.1 mb 0.00 in0.0 mm 0.00 in0.0 mm 0.00 in0.0 mm
10:30 AM 49.3°F9.6°C 42.8°F6.0°C 79% 2.8 mph S4.5 kmh S 4.3 mph6.9 kmh 29.06 in984.1 mb 0.00 in0.0 mm 0.00 in0.0 mm 0.00 in0.0 mm
10:35 AM 50.0°F10.0°C 42.8°F6.0°C 78% 2.6 mph S4.2 kmh S 4.0 mph6.4 kmh 29.06 in984.1 mb 0.00 in0.0 mm 0.00 in0.0 mm 0.00 in0.0 mm
10:40 AM 50.4°F10.2°C 44.6°F7.0°C 77% 5.0 mph S8.0 kmh S 10.7 mph17.2 kmh 29.06 in984.1 mb 0.00 in0.0 mm 0.00 in0.0 mm 0.00 in0.0 mm
10:45 AM 50.5°F10.3°C 42.8°F6.0°C 75% 7.0 mph S11.3 kmh S 10.7 mph17.2 kmh 29.06 in984.1 mb 0.00 in0.0 mm 0.00 in0.0 mm 0.00 in0.0 mm
10:50 AM 50.7°F10.4°C 42.8°F6.0°C 74% 6.0 mph S9.7 kmh S 10.1 mph16.3 kmh 29.06 in984.1 mb 0.00 in0.0 mm 0.00 in0.0 mm 0.00 in0.0 mm
10:55 AM 51.1°F10.6°C 42.8°F6.0°C 74% 3.8 mph S6.1 kmh S 6.5 mph10.5 kmh 29.06 in984.1 mb 0.00 in0.0 mm 0.00 in0.0 mm 0.00 in0.0 mm
11:00 AM 51.4°F10.8°C 42.8°F6.0°C 73% 3.2 mph S5.1 kmh S 6.7 mph10.8 kmh 29.06 in984.1 mb 0.00 in0.0 mm 0.00 in0.0 mm 0.00 in0.0 mm
11:05 AM 52.5°F11.4°C 44.6°F7.0°C 72% 4.0 mph S6.4 kmh S 6.7 mph10.8 kmh 29.06 in984.1 mb 0.00 in0.0 mm 0.00 in0.0 mm 0.00 in0.0 mm
11:10 AM 53.2°F11.8°C 42.8°F6.0°C 70% 4.4 mph S7.1 kmh S 9.8 mph15.8 kmh 29.03 in983.1 mb 0.00 in0.0 mm 0.00 in0.0 mm 0.00 in0.0 mm
11:15 AM 53.6°F12.0°C 44.6°F7.0°C 69% 4.6 mph S7.4 kmh S 9.8 mph15.8 kmh 29.03 in983.1 mb 0.00 in0.0 mm 0.00 in0.0 mm 0.00 in0.0 mm
11:20 AM 53.8°F12.1°C 44.6°F7.0°C 69% 4.4 mph SSE7.1 kmh SSE 8.1 mph13.0 kmh 29.03 in983.1 mb 0.00 in0.0 mm 0.00 in0.0 mm 0.00 in0.0 mm
11:25 AM 54.7°F12.6°C 44.6°F7.0°C 69% 3.5 mph SSE5.6 kmh SSE 8.1 mph13.0 kmh 29.06 in984.1 mb 0.00 in0.0 mm 0.00 in0.0 mm 0.00 in0.0 mm
11:30 AM 55.0°F12.8°C 46.4°F8.0°C 68% 3.2 mph S5.1 kmh S 5.8 mph9.3 kmh 29.06 in984.1 mb 0.00 in0.0 mm 0.00 in0.0 mm 0.00 in0.0 mm
11:35 AM 54.1°F12.3°C 44.6°F7.0°C 68% 4.4 mph SSW7.1 kmh SSW 7.4 mph11.9 kmh 29.06 in984.1 mb 0.00 in0.0 mm 0.00 in0.0 mm 0.00 in0.0 mm
11:40 AM 54.3°F12.4°C 44.6°F7.0°C 68% 5.8 mph SSW9.3 kmh SSW 9.6 mph15.4 kmh 29.03 in983.1 mb 0.00 in0.0 mm 0.00 in0.0 mm 0.00 in0.0 mm
11:45 AM 54.0°F12.2°C 44.6°F7.0°C 68% 6.1 mph SSW9.8 kmh SSW 10.1 mph16.3 kmh 29.03 in983.1 mb 0.00 in0.0 mm 0.00 in0.0 mm 0.00 in0.0 mm
11:50 AM 53.1°F11.7°C 42.8°F6.0°C 68% 5.3 mph S8.5 kmh S 10.1 mph16.3 kmh 29.03 in983.1 mb 0.00 in0.0 mm 0.00 in0.0 mm 0.00 in0.0 mm
11:55 AM 53.1°F11.7°C 42.8°F6.0°C 68% 4.1 mph S6.6 kmh S 6.5 mph10.5 kmh 29.00 in982.1 mb 0.00 in0.0 mm 0.00 in0.0 mm 0.00 in0.0 mm
12:00 PM 53.1°F11.7°C 42.8°F6.0°C 69% 4.6 mph SSW7.4 kmh SSW 9.6 mph15.4 kmh 29.00 in982.1 mb 0.00 in0.0 mm 0.00 in0.0 mm 0.00 in0.0 mm
12:05 PM 53.2°F11.8°C 42.8°F6.0°C 68% 5.4 mph SSW8.7 kmh SSW 9.6 mph15.4 kmh 29.00 in982.1 mb 0.00 in0.0 mm 0.00 in0.0 mm 0.00 in0.0 mm
12:10 PM 53.6°F12.0°C 44.6°F7.0°C 68% 5.0 mph S8.0 kmh S 7.4 mph11.9 kmh 29.03 in983.1 mb 0.00 in0.0 mm 0.00 in0.0 mm 0.00 in0.0 mm
12:15 PM 53.2°F11.8°C 42.8°F6.0°C 68% 3.8 mph S6.1 kmh S 7.2 mph11.6 kmh 29.03 in983.1 mb 0.00 in0.0 mm 0.00 in0.0 mm 0.00 in0.0 mm
12:20 PM 53.4°F11.9°C 42.8°F6.0°C 69% 3.7 mph S6.0 kmh S 7.4 mph11.9 kmh 29.03 in983.1 mb 0.00 in0.0 mm 0.00 in0.0 mm 0.00 in0.0 mm
12:25 PM 53.4°F11.9°C 42.8°F6.0°C 69% 3.5 mph S5.6 kmh S 7.4 mph11.9 kmh 29.03 in983.1 mb 0.00 in0.0 mm 0.00 in0.0 mm 0.00 in0.0 mm
12:30 PM 54.5°F12.5°C 44.6°F7.0°C 68% 3.4 mph S5.5 kmh S 6.3 mph10.1 kmh 29.03 in983.1 mb 0.00 in0.0 mm 0.00 in0.0 mm 0.00 in0.0 mm
12:35 PM 54.9°F12.7°C 44.6°F7.0°C 68% 5.5 mph S8.9 kmh S 10.3 mph16.6 kmh 29.03 in983.1 mb 0.00 in0.0 mm 0.00 in0.0 mm 0.00 in0.0 mm
12:40 PM 54.5°F12.5°C 44.6°F7.0°C 68% 7.1 mph S11.4 kmh S 10.3 mph16.6 kmh 29.03 in983.1 mb 0.00 in0.0 mm 0.00 in0.0 mm 0.00 in0.0 mm
12:45 PM 55.8°F13.2°C 46.4°F8.0°C 67% 6.4 mph S10.3 kmh S 9.8 mph15.8 kmh 29.03 in983.1 mb 0.00 in0.0 mm 0.00 in0.0 mm 0.00 in0.0 mm
12:50 PM 55.6°F13.1°C 44.6°F7.0°C 67% 5.2 mph S8.4 kmh S 8.1 mph13.0 kmh 29.03 in983.1 mb 0.00 in0.0 mm 0.00 in0.0 mm 0.00 in0.0 mm
12:55 PM 54.9°F12.7°C 44.6°F7.0°C 68% 5.2 mph S8.4 kmh S 7.8 mph12.6 kmh 29.03 in983.1 mb 0.00 in0.0 mm 0.00 in0.0 mm 0.00 in0.0 mm
01:00 PM 54.1°F12.3°C 44.6°F7.0°C 68% 5.4 mph S8.7 kmh S 7.4 mph11.9 kmh 29.03 in983.1 mb 0.00 in0.0 mm 0.00 in0.0 mm 0.00 in0.0 mm
01:05 PM 54.1°F12.3°C 44.6°F7.0°C 68% 5.5 mph S8.9 kmh S 7.4 mph11.9 kmh 29.03 in983.1 mb 0.00 in0.0 mm 0.00 in0.0 mm 0.00 in0.0 mm
01:10 PM 54.1°F12.3°C 44.6°F7.0°C 68% 5.4 mph S8.7 kmh S 9.6 mph15.4 kmh 29.03 in983.1 mb 0.00 in0.0 mm 0.00 in0.0 mm 0.00 in0.0 mm
01:15 PM 54.5°F12.5°C 44.6°F7.0°C 68% 5.6 mph S9.0 kmh S 9.6 mph15.4 kmh 29.03 in983.1 mb 0.00 in0.0 mm 0.00 in0.0 mm 0.00 in0.0 mm
01:20 PM 56.3°F13.5°C 46.4°F8.0°C 67% 4.4 mph S7.1 kmh S 8.5 mph13.7 kmh 29.03 in983.1 mb 0.00 in0.0 mm 0.00 in0.0 mm 0.00 in0.0 mm
01:25 PM 56.1°F13.4°C 46.4°F8.0°C 67% 4.8 mph S7.7 kmh S 10.3 mph16.6 kmh 29.03 in983.1 mb 0.00 in0.0 mm 0.00 in0.0 mm 0.00 in0.0 mm
01:30 PM 55.9°F13.3°C 46.4°F8.0°C 67% 6.1 mph S9.8 kmh S 10.3 mph16.6 kmh 29.03 in983.1 mb 0.00 in0.0 mm 0.00 in0.0 mm 0.00 in0.0 mm
01:35 PM 56.1°F13.4°C 46.4°F8.0°C 68% 6.4 mph S10.3 kmh S 8.7 mph14.0 kmh 29.03 in983.1 mb 0.00 in0.0 mm 0.00 in0.0 mm 0.00 in0.0 mm
01:40 PM 55.8°F13.2°C 46.4°F8.0°C 67% 6.4 mph S10.3 kmh S 7.8 mph12.6 kmh 29.03 in983.1 mb 0.00 in0.0 mm 0.00 in0.0 mm 0.00 in0.0 mm
01:45 PM 55.8°F13.2°C 46.4°F8.0°C 68% 5.9 mph S9.5 kmh S 7.8 mph12.6 kmh 29.03 in983.1 mb 0.00 in0.0 mm 0.00 in0.0 mm 0.00 in0.0 mm
01:50 PM 55.9°F13.3°C 46.4°F8.0°C 68% 6.3 mph S10.1 kmh S 12.8 mph20.6 kmh 29.03 in983.1 mb 0.00 in0.0 mm 0.00 in0.0 mm 0.00 in0.0 mm
01:55 PM 55.6°F13.1°C 46.4°F8.0°C 68% 6.6 mph S10.6 kmh S 12.8 mph20.6 kmh 29.03 in983.1 mb 0.00 in0.0 mm 0.00 in0.0 mm 0.00 in0.0 mm
02:00 PM 55.4°F13.0°C 46.4°F8.0°C 68% 6.4 mph S10.3 kmh S 9.8 mph15.8 kmh 29.03 in983.1 mb 0.00 in0.0 mm 0.00 in0.0 mm 0.00 in0.0 mm
02:05 PM 55.4°F13.0°C 46.4°F8.0°C 68% 7.4 mph S11.9 kmh S 9.8 mph15.8 kmh 29.03 in983.1 mb 0.00 in0.0 mm 0.00 in0.0 mm 0.00 in0.0 mm
02:10 PM 55.8°F13.2°C 46.4°F8.0°C 68% 7.3 mph S11.7 kmh S 10.1 mph16.3 kmh 29.03 in983.1 mb 0.00 in0.0 mm 0.00 in0.0 mm 0.00 in0.0 mm
02:15 PM 55.8°F13.2°C 46.4°F8.0°C 68% 7.0 mph S11.3 kmh S 10.1 mph16.3 kmh 29.03 in983.1 mb 0.00 in0.0 mm 0.00 in0.0 mm 0.00 in0.0 mm
02:20 PM 55.8°F13.2°C 46.4°F8.0°C 68% 6.4 mph S10.3 kmh S 9.8 mph15.8 kmh 29.03 in983.1 mb 0.00 in0.0 mm 0.00 in0.0 mm 0.00 in0.0 mm
02:25 PM 55.9°F13.3°C 46.4°F8.0°C 68% 6.1 mph SSW9.8 kmh SSW 10.3 mph16.6 kmh 29.03 in983.1 mb 0.00 in0.0 mm 0.00 in0.0 mm 0.00 in0.0 mm
02:30 PM 56.1°F13.4°C 46.4°F8.0°C 68% 5.3 mph S8.5 kmh S 10.3 mph16.6 kmh 29.03 in983.1 mb 0.00 in0.0 mm 0.00 in0.0 mm 0.00 in0.0 mm
02:35 PM 55.9°F13.3°C 46.4°F8.0°C 68% 5.9 mph S9.5 kmh S 10.1 mph16.3 kmh 29.03 in983.1 mb 0.00 in0.0 mm 0.00 in0.0 mm 0.00 in0.0 mm
02:40 PM 55.9°F13.3°C 46.4°F8.0°C 68% 6.9 mph S11.1 kmh S 11.2 mph18.0 kmh 29.03 in983.1 mb 0.00 in0.0 mm 0.00 in0.0 mm 0.00 in0.0 mm
02:45 PM 55.9°F13.3°C 46.4°F8.0°C 68% 6.2 mph S10.0 kmh S 11.2 mph18.0 kmh 29.03 in983.1 mb 0.00 in0.0 mm 0.00 in0.0 mm 0.00 in0.0 mm
02:50 PM 55.8°F13.2°C 46.4°F8.0°C 69% 5.3 mph S8.5 kmh S 9.8 mph15.8 kmh 29.03 in983.1 mb 0.00 in0.0 mm 0.00 in0.0 mm 0.00 in0.0 mm
02:55 PM 55.9°F13.3°C 46.4°F8.0°C 68% 5.9 mph S9.5 kmh S 9.8 mph15.8 kmh 29.03 in983.1 mb 0.00 in0.0 mm 0.00 in0.0 mm 0.00 in0.0 mm
03:00 PM 56.7°F13.7°C 46.4°F8.0°C 69% 6.1 mph S9.8 kmh S 8.1 mph13.0 kmh 29.03 in983.1 mb 0.00 in0.0 mm 0.00 in0.0 mm 0.00 in0.0 mm
03:05 PM 56.5°F13.6°C 46.4°F8.0°C 68% 5.2 mph S8.4 kmh S 8.1 mph13.0 kmh 29.03 in983.1 mb 0.00 in0.0 mm 0.00 in0.0 mm 0.00 in0.0 mm
03:10 PM 55.9°F13.3°C 46.4°F8.0°C 69% 5.3 mph S8.5 kmh S 8.5 mph13.7 kmh 29.00 in982.1 mb 0.00 in0.0 mm 0.00 in0.0 mm 0.00 in0.0 mm
03:15 PM 56.3°F13.5°C 46.4°F8.0°C 69% 5.2 mph S8.4 kmh S 8.5 mph13.7 kmh 29.00 in982.1 mb 0.00 in0.0 mm 0.00 in0.0 mm 0.00 in0.0 mm
03:20 PM 56.7°F13.7°C 46.4°F8.0°C 69% 5.1 mph S8.2 kmh S 9.4 mph15.1 kmh 29.00 in982.1 mb 0.00 in0.0 mm 0.00 in0.0 mm 0.00 in0.0 mm
03:25 PM 56.5°F13.6°C 46.4°F8.0°C 69% 5.6 mph SSW9.0 kmh SSW 9.4 mph15.1 kmh 29.00 in982.1 mb 0.00 in0.0 mm 0.00 in0.0 mm 0.00 in0.0 mm
03:30 PM 56.3°F13.5°C 46.4°F8.0°C 69% 4.8 mph SSW7.7 kmh SSW 9.4 mph15.1 kmh 29.00 in982.1 mb 0.00 in0.0 mm 0.00 in0.0 mm 0.00 in0.0 mm
03:35 PM 56.1°F13.4°C 46.4°F8.0°C 69% 4.1 mph SSW6.6 kmh SSW 5.6 mph9.0 kmh 29.00 in982.1 mb 0.00 in0.0 mm 0.00 in0.0 mm 0.00 in0.0 mm
03:40 PM 55.8°F13.2°C 46.4°F8.0°C 69% 6.0 mph SSW9.7 kmh SSW 11.2 mph18.0 kmh 29.00 in982.1 mb 0.00 in0.0 mm 0.00 in0.0 mm 0.00 in0.0 mm
03:45 PM 55.8°F13.2°C 46.4°F8.0°C 68% 6.4 mph SW10.3 kmh SW 11.2 mph18.0 kmh 29.00 in982.1 mb 0.00 in0.0 mm 0.00 in0.0 mm 0.00 in0.0 mm
03:50 PM 55.8°F13.2°C 46.4°F8.0°C 68% 5.5 mph SW8.9 kmh SW 9.6 mph15.4 kmh 29.00 in982.1 mb 0.00 in0.0 mm 0.00 in0.0 mm 0.00 in0.0 mm
03:55 PM 55.6°F13.1°C 46.4°F8.0°C 68% 4.7 mph SSW7.6 kmh SSW 8.1 mph13.0 kmh 29.03 in983.1 mb 0.00 in0.0 mm 0.00 in0.0 mm 0.00 in0.0 mm
04:00 PM 55.6°F13.1°C 46.4°F8.0°C 68% 5.0 mph SW8.0 kmh SW 8.1 mph13.0 kmh 29.03 in983.1 mb 0.00 in0.0 mm 0.00 in0.0 mm 0.00 in0.0 mm
04:05 PM 55.2°F12.9°C 46.4°F8.0°C 69% 5.1 mph SSW8.2 kmh SSW 8.1 mph13.0 kmh 29.03 in983.1 mb 0.00 in0.0 mm 0.00 in0.0 mm 0.00 in0.0 mm
04:10 PM 55.0°F12.8°C 46.4°F8.0°C 69% 5.4 mph S8.7 kmh S 9.4 mph15.1 kmh 29.00 in982.1 mb 0.00 in0.0 mm 0.00 in0.0 mm 0.00 in0.0 mm
04:15 PM 54.9°F12.7°C 44.6°F7.0°C 68% 5.4 mph S8.7 kmh S 9.4 mph15.1 kmh 29.00 in982.1 mb 0.00 in0.0 mm 0.00 in0.0 mm 0.00 in0.0 mm
04:20 PM 54.9°F12.7°C 44.6°F7.0°C 69% 5.9 mph SSW9.5 kmh SSW 14.3 mph23.0 kmh 29.00 in982.1 mb 0.00 in0.0 mm 0.00 in0.0 mm 0.00 in0.0 mm
04:25 PM 54.5°F12.5°C 44.6°F7.0°C 69% 5.7 mph SSW9.2 kmh SSW 14.3 mph23.0 kmh 29.00 in982.1 mb 0.00 in0.0 mm 0.00 in0.0 mm 0.00 in0.0 mm
04:30 PM 54.1°F12.3°C 44.6°F7.0°C 69% 5.3 mph S8.5 kmh S 7.8 mph12.6 kmh 29.00 in982.1 mb 0.00 in0.0 mm 0.00 in0.0 mm 0.00 in0.0 mm
04:35 PM 54.0°F12.2°C 44.6°F7.0°C 69% 5.9 mph S9.5 kmh S 10.3 mph16.6 kmh 29.00 in982.1 mb 0.00 in0.0 mm 0.00 in0.0 mm 0.00 in0.0 mm
04:40 PM 53.4°F11.9°C 42.8°F6.0°C 69% 6.0 mph S9.7 kmh S 10.3 mph16.6 kmh 29.00 in982.1 mb 0.00 in0.0 mm 0.00 in0.0 mm 0.00 in0.0 mm
04:45 PM 53.1°F11.7°C 42.8°F6.0°C 70% 6.6 mph SSW10.6 kmh SSW 10.1 mph16.3 kmh 29.00 in982.1 mb 0.00 in0.0 mm 0.00 in0.0 mm 0.00 in0.0 mm
04:50 PM 52.9°F11.6°C 44.6°F7.0°C 71% 6.0 mph S9.7 kmh S 10.1 mph16.3 kmh 29.00 in982.1 mb 0.00 in0.0 mm 0.00 in0.0 mm 0.00 in0.0 mm
04:55 PM 52.7°F11.5°C 44.6°F7.0°C 71% 5.5 mph S8.9 kmh S 10.1 mph16.3 kmh 29.03 in983.1 mb 0.00 in0.0 mm 0.00 in0.0 mm 0.00 in0.0 mm
05:00 PM 52.3°F11.3°C 42.8°F6.0°C 71% 5.7 mph S9.2 kmh S 9.8 mph15.8 kmh 29.03 in983.1 mb 0.00 in0.0 mm 0.00 in0.0 mm 0.00 in0.0 mm
05:05 PM 52.0°F11.1°C 42.8°F6.0°C 71% 5.4 mph S8.7 kmh S 10.1 mph16.3 kmh 29.03 in983.1 mb 0.00 in0.0 mm 0.00 in0.0 mm 0.00 in0.0 mm
05:10 PM 51.8°F11.0°C 42.8°F6.0°C 71% 5.0 mph SSW8.0 kmh SSW 10.1 mph16.3 kmh 29.00 in982.1 mb 0.00 in0.0 mm 0.00 in0.0 mm 0.00 in0.0 mm
05:15 PM 51.6°F10.9°C 42.8°F6.0°C 71% 4.9 mph SSW7.9 kmh SSW 8.7 mph14.0 kmh 29.00 in982.1 mb 0.00 in0.0 mm 0.00 in0.0 mm 0.00 in0.0 mm
05:20 PM 51.4°F10.8°C 42.8°F6.0°C 72% 5.1 mph SSW8.2 kmh SSW 8.1 mph13.0 kmh 29.00 in982.1 mb 0.00 in0.0 mm 0.00 in0.0 mm 0.00 in0.0 mm
05:25 PM 51.3°F10.7°C 42.8°F6.0°C 72% 5.3 mph SSW8.5 kmh SSW 8.5 mph13.7 kmh 29.00 in982.1 mb 0.00 in0.0 mm 0.00 in0.0 mm 0.00 in0.0 mm
05:30 PM 51.1°F10.6°C 42.8°F6.0°C 72% 5.1 mph S8.2 kmh S 8.5 mph13.7 kmh 29.00 in982.1 mb 0.00 in0.0 mm 0.00 in0.0 mm 0.00 in0.0 mm
05:35 PM 51.1°F10.6°C 42.8°F6.0°C 72% 5.1 mph S8.2 kmh S 8.5 mph13.7 kmh 29.00 in982.1 mb 0.00 in0.0 mm 0.00 in0.0 mm 0.00 in0.0 mm
05:40 PM 50.7°F10.4°C 42.8°F6.0°C 72% 4.9 mph S7.9 kmh S 6.0 mph9.7 kmh 29.03 in983.1 mb 0.00 in0.0 mm 0.00 in0.0 mm 0.00 in0.0 mm
05:45 PM 50.5°F10.3°C 42.8°F6.0°C 71% 5.2 mph SSW8.4 kmh SSW 10.3 mph16.6 kmh 29.03 in983.1 mb 0.00 in0.0 mm 0.00 in0.0 mm 0.00 in0.0 mm
05:50 PM 50.5°F10.3°C 42.8°F6.0°C 72% 4.9 mph S7.9 kmh S 10.3 mph16.6 kmh 29.03 in983.1 mb 0.00 in0.0 mm 0.00 in0.0 mm 0.00 in0.0 mm
05:55 PM 50.4°F10.2°C 42.8°F6.0°C 71% 4.4 mph S7.1 kmh S 6.5 mph10.5 kmh 29.03 in983.1 mb 0.00 in0.0 mm 0.00 in0.0 mm 0.00 in0.0 mm
06:00 PM 50.2°F10.1°C 42.8°F6.0°C 72% 4.0 mph S6.4 kmh S 6.5 mph10.5 kmh 29.03 in983.1 mb 0.00 in0.0 mm 0.00 in0.0 mm 0.00 in0.0 mm
06:05 PM 49.8°F9.9°C 42.8°F6.0°C 72% 4.5 mph S7.2 kmh S 6.5 mph10.5 kmh 29.03 in983.1 mb 0.00 in0.0 mm 0.00 in0.0 mm 0.00 in0.0 mm
06:10 PM 49.6°F9.8°C 41.0°F5.0°C 72% 4.6 mph S7.4 kmh S 7.6 mph12.2 kmh 29.03 in983.1 mb 0.00 in0.0 mm 0.00 in0.0 mm 0.00 in0.0 mm
06:15 PM 49.3°F9.6°C 41.0°F5.0°C 73% 3.9 mph S6.3 kmh S 7.6 mph12.2 kmh 29.03 in983.1 mb 0.00 in0.0 mm 0.00 in0.0 mm 0.00 in0.0 mm
06:20 PM 49.3°F9.6°C 41.0°F5.0°C 73% 3.6 mph S5.8 kmh S 7.6 mph12.2 kmh 29.03 in983.1 mb 0.00 in0.0 mm 0.00 in0.0 mm 0.00 in0.0 mm
06:25 PM 49.1°F9.5°C 41.0°F5.0°C 73% 4.2 mph S6.8 kmh S 7.4 mph11.9 kmh 29.03 in983.1 mb 0.00 in0.0 mm 0.00 in0.0 mm 0.00 in0.0 mm
06:30 PM 49.1°F9.5°C 42.8°F6.0°C 74% 5.0 mph S8.0 kmh S 8.7 mph14.0 kmh 29.03 in983.1 mb 0.00 in0.0 mm 0.00 in0.0 mm 0.00 in0.0 mm
06:35 PM 48.9°F9.4°C 41.0°F5.0°C 74% 4.3 mph S6.9 kmh S 8.7 mph14.0 kmh 29.03 in983.1 mb 0.00 in0.0 mm 0.00 in0.0 mm 0.00 in0.0 mm
06:40 PM 48.7°F9.3°C 41.0°F5.0°C 74% 4.3 mph S6.9 kmh S 6.0 mph9.7 kmh 29.03 in983.1 mb 0.00 in0.0 mm 0.00 in0.0 mm 0.00 in0.0 mm
06:45 PM 48.4°F9.1°C 41.0°F5.0°C 74% 5.1 mph S8.2 kmh S 7.8 mph12.6 kmh 29.03 in983.1 mb 0.00 in0.0 mm 0.00 in0.0 mm 0.00 in0.0 mm
06:50 PM 48.4°F9.1°C 41.0°F5.0°C 74% 4.9 mph S7.9 kmh S 7.8 mph12.6 kmh 29.03 in983.1 mb 0.00 in0.0 mm 0.00 in0.0 mm 0.00 in0.0 mm
06:55 PM 48.0°F8.9°C 41.0°F5.0°C 74% 4.1 mph S6.6 kmh S 5.8 mph9.3 kmh 29.06 in984.1 mb 0.00 in0.0 mm 0.00 in0.0 mm 0.00 in0.0 mm
07:00 PM 48.0°F8.9°C 41.0°F5.0°C 74% 4.9 mph S7.9 kmh S 8.1 mph13.0 kmh 29.06 in984.1 mb 0.00 in0.0 mm 0.00 in0.0 mm 0.00 in0.0 mm
07:05 PM 48.0°F8.9°C 41.0°F5.0°C 74% 5.1 mph S8.2 kmh S 8.1 mph13.0 kmh 29.06 in984.1 mb 0.00 in0.0 mm 0.00 in0.0 mm 0.00 in0.0 mm
07:10 PM 47.7°F8.7°C 41.0°F5.0°C 74% 4.8 mph S7.7 kmh S 7.4 mph11.9 kmh 29.03 in983.1 mb 0.00 in0.0 mm 0.00 in0.0 mm 0.00 in0.0 mm
07:15 PM 47.7°F8.7°C 41.0°F5.0°C 74% 4.8 mph S7.7 kmh S 7.4 mph11.9 kmh 29.03 in983.1 mb 0.00 in0.0 mm 0.00 in0.0 mm 0.00 in0.0 mm
07:20 PM 47.7°F8.7°C 41.0°F5.0°C 74% 5.3 mph SSE8.5 kmh SSE 8.7 mph14.0 kmh 29.03 in983.1 mb 0.00 in0.0 mm 0.00 in0.0 mm 0.00 in0.0 mm
07:25 PM 47.7°F8.7°C 41.0°F5.0°C 74% 6.2 mph S10.0 kmh S 8.7 mph14.0 kmh 29.06 in984.1 mb 0.00 in0.0 mm 0.00 in0.0 mm 0.00 in0.0 mm
07:30 PM 47.8°F8.8°C 41.0°F5.0°C 74% 7.6 mph S12.2 kmh S 10.7 mph17.2 kmh 29.06 in984.1 mb 0.00 in0.0 mm 0.00 in0.0 mm 0.00 in0.0 mm
07:35 PM 47.7°F8.7°C 41.0°F5.0°C 74% 6.8 mph S10.9 kmh S 10.7 mph17.2 kmh 29.06 in984.1 mb 0.00 in0.0 mm 0.00 in0.0 mm 0.00 in0.0 mm
07:40 PM 47.5°F8.6°C 41.0°F5.0°C 75% 5.8 mph S9.3 kmh S 7.6 mph12.2 kmh 29.03 in983.1 mb 0.00 in0.0 mm 0.00 in0.0 mm 0.00 in0.0 mm
07:45 PM 47.7°F8.7°C 41.0°F5.0°C 75% 5.3 mph S8.5 kmh S 7.6 mph12.2 kmh 29.03 in983.1 mb 0.00 in0.0 mm 0.00 in0.0 mm 0.00 in0.0 mm
07:50 PM 47.7°F8.7°C 41.0°F5.0°C 75% 5.0 mph S8.0 kmh S 8.5 mph13.7 kmh 29.03 in983.1 mb 0.00 in0.0 mm 0.00 in0.0 mm 0.00 in0.0 mm
07:55 PM 47.3°F8.5°C 41.0°F5.0°C 75% 5.5 mph S8.9 kmh S 8.7 mph14.0 kmh 29.06 in984.1 mb 0.00 in0.0 mm 0.00 in0.0 mm 0.00 in0.0 mm
08:00 PM 47.3°F8.5°C 41.0°F5.0°C 75% 6.0 mph S9.7 kmh S 8.7 mph14.0 kmh 29.06 in984.1 mb 0.00 in0.0 mm 0.00 in0.0 mm 0.00 in0.0 mm
08:05 PM 47.1°F8.4°C 41.0°F5.0°C 75% 5.5 mph S8.9 kmh S 8.7 mph14.0 kmh 29.06 in984.1 mb 0.00 in0.0 mm 0.00 in0.0 mm 0.00 in0.0 mm
08:10 PM 46.9°F8.3°C 41.0°F5.0°C 75% 4.6 mph S7.4 kmh S 7.6 mph12.2 kmh 29.03 in983.1 mb 0.00 in0.0 mm 0.00 in0.0 mm 0.00 in0.0 mm
08:15 PM 46.9°F8.3°C 41.0°F5.0°C 75% 4.9 mph S7.9 kmh S 7.8 mph12.6 kmh 29.03 in983.1 mb 0.00 in0.0 mm 0.00 in0.0 mm 0.00 in0.0 mm
08:20 PM 46.8°F8.2°C 39.2°F4.0°C 75% 5.6 mph S9.0 kmh S 9.6 mph15.4 kmh 29.03 in983.1 mb 0.00 in0.0 mm 0.00 in0.0 mm 0.00 in0.0 mm
08:25 PM 46.6°F8.1°C 39.2°F4.0°C 75% 5.6 mph S9.0 kmh S 9.6 mph15.4 kmh 29.06 in984.1 mb 0.00 in0.0 mm 0.00 in0.0 mm 0.00 in0.0 mm
08:30 PM 46.4°F8.0°C 39.2°F4.0°C 75% 4.3 mph S6.9 kmh S 7.4 mph11.9 kmh 29.06 in984.1 mb 0.00 in0.0 mm 0.00 in0.0 mm 0.00 in0.0 mm
08:35 PM 46.4°F8.0°C 39.2°F4.0°C 75% 4.4 mph S7.1 kmh S 7.4 mph11.9 kmh 29.06 in984.1 mb 0.00 in0.0 mm 0.00 in0.0 mm 0.00 in0.0 mm
08:40 PM 46.2°F7.9°C 39.2°F4.0°C 75% 5.1 mph S8.2 kmh S 7.4 mph11.9 kmh 29.00 in982.1 mb 0.00 in0.0 mm 0.00 in0.0 mm 0.00 in0.0 mm
08:45 PM 46.2°F7.9°C 39.2°F4.0°C 75% 4.6 mph S7.4 kmh S 6.5 mph10.5 kmh 29.00 in982.1 mb 0.00 in0.0 mm 0.00 in0.0 mm 0.00 in0.0 mm
08:50 PM 45.9°F7.7°C 39.2°F4.0°C 76% 4.3 mph S6.9 kmh S 6.5 mph10.5 kmh 29.00 in982.1 mb 0.00 in0.0 mm 0.00 in0.0 mm 0.00 in0.0 mm
08:55 PM 45.7°F7.6°C 39.2°F4.0°C 76% 4.0 mph S6.4 kmh S 6.3 mph10.1 kmh 29.03 in983.1 mb 0.00 in0.0 mm 0.00 in0.0 mm 0.00 in0.0 mm
09:00 PM 45.5°F7.5°C 39.2°F4.0°C 76% 4.2 mph S6.8 kmh S 6.0 mph9.7 kmh 29.03 in983.1 mb 0.00 in0.0 mm 0.00 in0.0 mm 0.00 in0.0 mm
09:05 PM 45.5°F7.5°C 39.2°F4.0°C 76% 4.4 mph S7.1 kmh S 5.8 mph9.3 kmh 29.03 in983.1 mb 0.00 in0.0 mm 0.00 in0.0 mm 0.00 in0.0 mm
09:10 PM 45.7°F7.6°C 39.2°F4.0°C 76% 4.5 mph S7.2 kmh S 6.3 mph10.1 kmh 29.09 in985.1 mb 0.00 in0.0 mm 0.00 in0.0 mm 0.00 in0.0 mm
09:15 PM 45.5°F7.5°C 39.2°F4.0°C 76% 4.8 mph S7.7 kmh S 7.6 mph12.2 kmh 29.09 in985.1 mb 0.00 in0.0 mm 0.00 in0.0 mm 0.00 in0.0 mm
09:20 PM 45.5°F7.5°C 39.2°F4.0°C 76% 4.6 mph S7.4 kmh S 7.6 mph12.2 kmh 29.09 in985.1 mb 0.00 in0.0 mm 0.00 in0.0 mm 0.00 in0.0 mm
09:25 PM 45.5°F7.5°C 39.2°F4.0°C 76% 5.4 mph S8.7 kmh S 9.6 mph15.4 kmh 29.09 in985.1 mb 0.00 in0.0 mm 0.00 in0.0 mm 0.00 in0.0 mm
09:30 PM 45.3°F7.4°C 37.4°F3.0°C 76% 4.9 mph S7.9 kmh S 9.6 mph15.4 kmh 29.09 in985.1 mb 0.00 in0.0 mm 0.00 in0.0 mm 0.00 in0.0 mm
09:35 PM 45.1°F7.3°C 37.4°F3.0°C 76% 3.9 mph S6.3 kmh S 6.5 mph10.5 kmh 29.09 in985.1 mb 0.00 in0.0 mm 0.00 in0.0 mm 0.00 in0.0 mm
09:40 PM 45.0°F7.2°C 37.4°F3.0°C 76% 3.3 mph S5.3 kmh S 4.9 mph7.9 kmh 29.09 in985.1 mb 0.00 in0.0 mm 0.00 in0.0 mm 0.00 in0.0 mm
09:45 PM 45.0°F7.2°C 37.4°F3.0°C 76% 4.0 mph S6.4 kmh S 7.6 mph12.2 kmh 29.09 in985.1 mb 0.00 in0.0 mm 0.00 in0.0 mm 0.00 in0.0 mm
09:50 PM 44.8°F7.1°C 37.4°F3.0°C 76% 4.1 mph S6.6 kmh S 7.6 mph12.2 kmh 29.09 in985.1 mb 0.00 in0.0 mm 0.00 in0.0 mm 0.00 in0.0 mm
09:55 PM 44.6°F7.0°C 37.4°F3.0°C 76% 3.1 mph S5.0 kmh S 4.7 mph7.6 kmh 29.12 in986.1 mb 0.00 in0.0 mm 0.00 in0.0 mm 0.00 in0.0 mm
10:00 PM 44.4°F6.9°C 37.4°F3.0°C 76% 2.8 mph S4.5 kmh S 3.6 mph5.8 kmh 29.12 in986.1 mb 0.00 in0.0 mm 0.00 in0.0 mm 0.00 in0.0 mm
10:05 PM 44.4°F6.9°C 37.4°F3.0°C 76% 2.6 mph S4.2 kmh S 4.9 mph7.9 kmh 29.12 in986.1 mb 0.00 in0.0 mm 0.00 in0.0 mm 0.00 in0.0 mm
10:10 PM 44.2°F6.8°C 37.4°F3.0°C 76% 2.4 mph S3.9 kmh S 4.9 mph7.9 kmh 29.06 in984.1 mb 0.00 in0.0 mm 0.00 in0.0 mm 0.00 in0.0 mm
10:15 PM 44.1°F6.7°C 37.4°F3.0°C 76% 2.3 mph SSE3.7 kmh SSE 4.9 mph7.9 kmh 29.06 in984.1 mb 0.00 in0.0 mm 0.00 in0.0 mm 0.00 in0.0 mm
10:20 PM 43.7°F6.5°C 37.4°F3.0°C 76% 2.1 mph SSE3.4 kmh SSE 2.9 mph4.7 kmh 29.06 in984.1 mb 0.00 in0.0 mm 0.00 in0.0 mm 0.00 in0.0 mm
10:25 PM 43.5°F6.4°C 37.4°F3.0°C 76% 1.5 mph S2.4 kmh S 2.9 mph4.7 kmh 29.12 in986.1 mb 0.00 in0.0 mm 0.00 in0.0 mm 0.00 in0.0 mm
10:30 PM 43.7°F6.5°C 37.4°F3.0°C 76% 1.5 mph S2.4 kmh S 2.9 mph4.7 kmh 29.12 in986.1 mb 0.00 in0.0 mm 0.00 in0.0 mm 0.00 in0.0 mm
10:35 PM 43.7°F6.5°C 37.4°F3.0°C 76% 2.2 mph S3.5 kmh S 5.6 mph9.0 kmh 29.12 in986.1 mb 0.00 in0.0 mm 0.00 in0.0 mm 0.00 in0.0 mm
10:40 PM 43.9°F6.6°C 37.4°F3.0°C 76% 2.7 mph S4.3 kmh S 5.6 mph9.0 kmh 28.85 in977.0 mb 0.00 in0.0 mm 0.00 in0.0 mm 0.00 in0.0 mm
10:45 PM 43.9°F6.6°C 37.4°F3.0°C 76% 2.6 mph S4.2 kmh S 4.0 mph6.4 kmh 28.85 in977.0 mb 0.00 in0.0 mm 0.00 in0.0 mm 0.00 in0.0 mm
10:50 PM 44.2°F6.8°C 37.4°F3.0°C 76% 2.2 mph S3.5 kmh S 4.0 mph6.4 kmh 28.85 in977.0 mb 0.00 in0.0 mm 0.00 in0.0 mm 0.00 in0.0 mm
10:55 PM 43.7°F6.5°C 37.4°F3.0°C 76% 2.0 mph SSE3.2 kmh SSE 3.6 mph5.8 kmh 29.09 in985.1 mb 0.00 in0.0 mm 0.00 in0.0 mm 0.00 in0.0 mm
11:00 PM 43.3°F6.3°C 37.4°F3.0°C 77% 1.4 mph SE2.3 kmh SE 2.9 mph4.7 kmh 29.09 in985.1 mb 0.00 in0.0 mm 0.00 in0.0 mm 0.00 in0.0 mm
11:05 PM 43.2°F6.2°C 37.4°F3.0°C 77% 1.0 mph SSE1.6 kmh SSE 2.7 mph4.3 kmh 29.09 in985.1 mb 0.00 in0.0 mm 0.00 in0.0 mm 0.00 in0.0 mm
11:10 PM 43.0°F6.1°C 37.4°F3.0°C 77% 1.3 mph SSE2.1 kmh SSE 2.7 mph4.3 kmh 29.09 in985.1 mb 0.00 in0.0 mm 0.00 in0.0 mm 0.00 in0.0 mm
11:15 PM 43.3°F6.3°C 37.4°F3.0°C 77% 1.7 mph SE2.7 kmh SE 3.6 mph5.8 kmh 29.09 in985.1 mb 0.00 in0.0 mm 0.00 in0.0 mm 0.00 in0.0 mm
11:20 PM 43.7°F6.5°C 37.4°F3.0°C 78% 2.1 mph SE3.4 kmh SE 3.6 mph5.8 kmh 29.09 in985.1 mb 0.00 in0.0 mm 0.00 in0.0 mm 0.00 in0.0 mm
11:25 PM 44.1°F6.7°C 37.4°F3.0°C 78% 2.3 mph SE3.7 kmh SE 4.0 mph6.4 kmh 29.09 in985.1 mb 0.00 in0.0 mm 0.00 in0.0 mm 0.00 in0.0 mm
11:30 PM 44.2°F6.8°C 37.4°F3.0°C 78% 2.0 mph SE3.2 kmh SE 4.0 mph6.4 kmh 29.09 in985.1 mb 0.00 in0.0 mm 0.00 in0.0 mm 0.00 in0.0 mm
11:35 PM 44.4°F6.9°C 37.4°F3.0°C 78% 2.2 mph SSE3.5 kmh SSE 4.0 mph6.4 kmh 29.09 in985.1 mb 0.00 in0.0 mm 0.00 in0.0 mm 0.00 in0.0 mm
11:40 PM 44.6°F7.0°C 37.4°F3.0°C 78% 3.2 mph SSE5.1 kmh SSE 4.7 mph7.6 kmh 29.09 in985.1 mb 0.00 in0.0 mm 0.00 in0.0 mm 0.00 in0.0 mm
11:45 PM 44.6°F7.0°C 37.4°F3.0°C 78% 3.0 mph SSE4.8 kmh SSE 6.9 mph11.1 kmh 29.09 in985.1 mb 0.00 in0.0 mm 0.00 in0.0 mm 0.00 in0.0 mm
11:50 PM 44.8°F7.1°C 37.4°F3.0°C 78% 3.0 mph S4.8 kmh S 6.9 mph11.1 kmh 29.09 in985.1 mb 0.00 in0.0 mm 0.00 in0.0 mm 0.00 in0.0 mm
11:55 PM 45.0°F7.2°C 39.2°F4.0°C 78% 3.5 mph SSE5.6 kmh SSE 6.9 mph11.1 kmh 29.09 in985.1 mb 0.00 in0.0 mm 0.00 in0.0 mm 0.00 in0.0 mm